TRA64R LPPD-EHRD
Flight info
| Callsign | TRA64R |
|---|---|
| Flight time | 3h 39m |
| Altitude | 35000 |
| Route | BAVAS DCT 40N022W DCT 4120N DCT 42N018W DCT KOPAS/N0450F360 DCT BERUX/M078F350 DCT SIVIR UN460 RIVAK/N0451F350 DCT AZFIC/N0446F360 UN741 MOKOR UN873 ADUTO N873 FERDI Y18 DENUT |
| Aircraft | A321/M-SDE3FGHIRWY/LB1 |
Departure
| Time | 2026-04-29 07:34 |
|---|---|
| Airport | João Paulo II Airport (LPPD) |
Arrival
| Time | 2026-04-29 11:13 |
|---|---|
| Airport | Rotterdam The Hague Airport (EHRD) |
| Time | Latitude | Longitude | Altitude | Speed | Heading |
|---|---|---|---|---|---|
| 2026-04-29 07:05 | 37.74879 | -25.71115 | 272 ft | 0 kts | 22° |
| 2026-04-29 07:26 | 37.74874 | -25.71117 | 271 ft | 3 kts | 22° |
| 2026-04-29 07:27 | 37.74850 | -25.71130 | 273 ft | 4 kts | 22° |
| 2026-04-29 07:27 | 37.74830 | -25.71140 | 275 ft | 4 kts | 2° |
| 2026-04-29 07:27 | 37.74810 | -25.71131 | 276 ft | 4 kts | 300° |
| 2026-04-29 07:27 | 37.74800 | -25.71101 | 271 ft | 4 kts | 291° |
| 2026-04-29 07:28 | 37.74790 | -25.71070 | 276 ft | 4 kts | 291° |
| 2026-04-29 07:28 | 37.74779 | -25.71038 | 277 ft | 4 kts | 291° |
| 2026-04-29 07:28 | 37.74769 | -25.71006 | 273 ft | 4 kts | 291° |
| 2026-04-29 07:28 | 37.74759 | -25.70975 | 274 ft | 4 kts | 291° |
| 2026-04-29 07:29 | 37.74752 | -25.70950 | 278 ft | 4 kts | 291° |
| 2026-04-29 07:29 | 37.74749 | -25.70942 | 275 ft | 0 kts | 291° |
| 2026-04-29 07:31 | 37.74749 | -25.70943 | 271 ft | 1 kts | 291° |
| 2026-04-29 07:32 | 37.74755 | -25.70972 | 271 ft | 6 kts | 274° |
| 2026-04-29 07:32 | 37.74715 | -25.71019 | 271 ft | 9 kts | 193° |
| 2026-04-29 07:32 | 37.74664 | -25.71046 | 275 ft | 8 kts | 220° |
| 2026-04-29 07:32 | 37.74605 | -25.71055 | 272 ft | 11 kts | 130° |
| 2026-04-29 07:33 | 37.74572 | -25.70944 | 271 ft | 20 kts | 111° |
| 2026-04-29 07:33 | 37.74412 | -25.70445 | 258 ft | 105 kts | 113° |
| 2026-04-29 07:33 | 37.74039 | -25.69295 | 220 ft | 175 kts | 111° |
| 2026-04-29 07:33 | 37.73559 | -25.67787 | 796 ft | 183 kts | 115° |
| 2026-04-29 07:34 | 37.73104 | -25.66304 | 1692 ft | 186 kts | 111° |
| 2026-04-29 07:34 | 37.72636 | -25.64757 | 2050 ft | 196 kts | 111° |
| 2026-04-29 07:34 | 37.72117 | -25.63077 | 2202 ft | 215 kts | 116° |
| 2026-04-29 07:34 | 37.71095 | -25.61657 | 2313 ft | 230 kts | 156° |
| 2026-04-29 07:35 | 37.69475 | -25.61399 | 2510 ft | 248 kts | 196° |
| 2026-04-29 07:35 | 37.68446 | -25.62024 | 2856 ft | 250 kts | 221° |
| 2026-04-29 07:35 | 37.67519 | -25.63848 | 3541 ft | 254 kts | 257° |
| 2026-04-29 07:35 | 37.67641 | -25.66063 | 4246 ft | 260 kts | 292° |
| 2026-04-29 07:36 | 37.68797 | -25.67826 | 4933 ft | 270 kts | 326° |
| 2026-04-29 07:36 | 37.70599 | -25.68601 | 5575 ft | 280 kts | 350° |
| 2026-04-29 07:36 | 37.72574 | -25.68510 | 6221 ft | 289 kts | 14° |
| 2026-04-29 07:36 | 37.74397 | -25.67406 | 6813 ft | 295 kts | 41° |
| 2026-04-29 07:37 | 37.75789 | -25.65502 | 7442 ft | 297 kts | 53° |
| 2026-04-29 07:37 | 37.77104 | -25.63464 | 8108 ft | 301 kts | 53° |
| 2026-04-29 07:37 | 37.78422 | -25.61406 | 8864 ft | 301 kts | 53° |
| 2026-04-29 07:37 | 37.79744 | -25.59342 | 9566 ft | 303 kts | 53° |
| 2026-04-29 07:38 | 37.81086 | -25.57256 | 10110 ft | 312 kts | 53° |
| 2026-04-29 07:38 | 37.82502 | -25.55054 | 10239 ft | 333 kts | 53° |
| 2026-04-29 07:38 | 37.83992 | -25.52739 | 10362 ft | 353 kts | 53° |
| 2026-04-29 07:38 | 37.85585 | -25.50267 | 10576 ft | 369 kts | 53° |
| 2026-04-29 07:39 | 37.87228 | -25.47718 | 11072 ft | 375 kts | 53° |
| 2026-04-29 07:39 | 37.88888 | -25.45145 | 11656 ft | 379 kts | 53° |
| 2026-04-29 07:39 | 37.90566 | -25.42544 | 12256 ft | 383 kts | 53° |
| 2026-04-29 07:39 | 37.92256 | -25.39924 | 12835 ft | 386 kts | 54° |
| 2026-04-29 07:40 | 37.93965 | -25.37269 | 13426 ft | 390 kts | 54° |
| 2026-04-29 07:40 | 37.95665 | -25.34622 | 13973 ft | 393 kts | 54° |
| 2026-04-29 07:40 | 37.97398 | -25.31922 | 14489 ft | 397 kts | 54° |
| 2026-04-29 07:40 | 37.99147 | -25.29194 | 15004 ft | 400 kts | 54° |
| 2026-04-29 07:41 | 38.00911 | -25.26442 | 15583 ft | 403 kts | 54° |
| 2026-04-29 07:41 | 38.02684 | -25.23671 | 16156 ft | 406 kts | 54° |
| 2026-04-29 07:41 | 38.04468 | -25.20878 | 16684 ft | 409 kts | 54° |
| 2026-04-29 07:41 | 38.06269 | -25.18058 | 17237 ft | 413 kts | 55° |
| 2026-04-29 07:42 | 38.08093 | -25.15205 | 17739 ft | 416 kts | 55° |
| 2026-04-29 07:42 | 38.09903 | -25.12372 | 18211 ft | 419 kts | 55° |
| 2026-04-29 07:42 | 38.11741 | -25.09490 | 18612 ft | 422 kts | 55° |
| 2026-04-29 07:42 | 38.13593 | -25.06580 | 19007 ft | 424 kts | 55° |
| 2026-04-29 07:43 | 38.15455 | -25.03649 | 19398 ft | 427 kts | 55° |
| 2026-04-29 07:43 | 38.17328 | -25.00696 | 19764 ft | 430 kts | 54° |
| 2026-04-29 07:43 | 38.19206 | -24.97732 | 20148 ft | 432 kts | 54° |
| 2026-04-29 07:43 | 38.21100 | -24.94742 | 20520 ft | 435 kts | 54° |
| 2026-04-29 07:44 | 38.23009 | -24.91729 | 20872 ft | 439 kts | 54° |
| 2026-04-29 07:44 | 38.24934 | -24.88690 | 21241 ft | 442 kts | 54° |
| 2026-04-29 07:44 | 38.26869 | -24.85633 | 21673 ft | 445 kts | 54° |
| 2026-04-29 07:44 | 38.28814 | -24.82556 | 22023 ft | 448 kts | 55° |
| 2026-04-29 07:45 | 38.30752 | -24.79482 | 22358 ft | 452 kts | 55° |
| 2026-04-29 07:45 | 38.32730 | -24.76349 | 22712 ft | 456 kts | 55° |
| 2026-04-29 07:45 | 38.34724 | -24.73187 | 23058 ft | 459 kts | 55° |
| 2026-04-29 07:45 | 38.36729 | -24.70005 | 23389 ft | 462 kts | 55° |
| 2026-04-29 07:46 | 38.38758 | -24.66783 | 23653 ft | 467 kts | 54° |
| 2026-04-29 07:46 | 38.40799 | -24.63537 | 23939 ft | 470 kts | 54° |
| 2026-04-29 07:46 | 38.42846 | -24.60275 | 24239 ft | 472 kts | 54° |
| 2026-04-29 07:46 | 38.44900 | -24.56994 | 24574 ft | 474 kts | 54° |
| 2026-04-29 07:47 | 38.46959 | -24.53701 | 24898 ft | 476 kts | 54° |
| 2026-04-29 07:47 | 38.48995 | -24.50443 | 25244 ft | 476 kts | 54° |
| 2026-04-29 07:47 | 38.51066 | -24.47127 | 25564 ft | 478 kts | 54° |
| 2026-04-29 07:47 | 38.53140 | -24.43805 | 25869 ft | 479 kts | 54° |
| 2026-04-29 07:48 | 38.55221 | -24.40472 | 26166 ft | 481 kts | 54° |
| 2026-04-29 07:48 | 38.57310 | -24.37124 | 26449 ft | 482 kts | 54° |
| 2026-04-29 07:48 | 38.59402 | -24.33767 | 26761 ft | 483 kts | 54° |
| 2026-04-29 07:48 | 38.61500 | -24.30394 | 27041 ft | 485 kts | 54° |
| 2026-04-29 07:49 | 38.63600 | -24.27014 | 27311 ft | 487 kts | 54° |
| 2026-04-29 07:49 | 38.65713 | -24.23613 | 27587 ft | 488 kts | 54° |
| 2026-04-29 07:49 | 38.67833 | -24.20199 | 27854 ft | 490 kts | 54° |
| 2026-04-29 07:49 | 38.69956 | -24.16776 | 28117 ft | 492 kts | 54° |
| 2026-04-29 07:50 | 38.72087 | -24.13338 | 28388 ft | 494 kts | 54° |
| 2026-04-29 07:50 | 38.74224 | -24.09882 | 28649 ft | 496 kts | 54° |
| 2026-04-29 07:50 | 38.76341 | -24.06450 | 28917 ft | 496 kts | 54° |
| 2026-04-29 07:50 | 38.78478 | -24.02977 | 29280 ft | 495 kts | 54° |
| 2026-04-29 07:51 | 38.80607 | -23.99509 | 29658 ft | 493 kts | 54° |
| 2026-04-29 07:51 | 38.82727 | -23.96049 | 30085 ft | 491 kts | 54° |
| 2026-04-29 07:51 | 38.84835 | -23.92619 | 30405 ft | 489 kts | 54° |
| 2026-04-29 07:51 | 38.86940 | -23.89195 | 30712 ft | 488 kts | 54° |
| 2026-04-29 07:52 | 38.89043 | -23.85771 | 31022 ft | 487 kts | 54° |
| 2026-04-29 07:52 | 38.91108 | -23.82393 | 31326 ft | 486 kts | 54° |
| 2026-04-29 07:52 | 38.93193 | -23.78978 | 31648 ft | 486 kts | 54° |
| 2026-04-29 07:52 | 38.95275 | -23.75568 | 31945 ft | 485 kts | 54° |
| 2026-04-29 07:53 | 38.97359 | -23.72159 | 32251 ft | 484 kts | 54° |
| 2026-04-29 07:53 | 38.99436 | -23.68764 | 32566 ft | 483 kts | 54° |
| 2026-04-29 07:53 | 39.01509 | -23.65370 | 32872 ft | 482 kts | 54° |
| 2026-04-29 07:53 | 39.03578 | -23.61986 | 33185 ft | 481 kts | 54° |
| 2026-04-29 07:54 | 39.05648 | -23.58603 | 33479 ft | 481 kts | 54° |
| 2026-04-29 07:54 | 39.07716 | -23.55217 | 33749 ft | 480 kts | 54° |
| 2026-04-29 07:54 | 39.09790 | -23.51814 | 34026 ft | 480 kts | 54° |
| 2026-04-29 07:54 | 39.11817 | -23.48475 | 34259 ft | 480 kts | 54° |
| 2026-04-29 07:55 | 39.13870 | -23.45083 | 34490 ft | 480 kts | 54° |
| 2026-04-29 07:55 | 39.15921 | -23.41695 | 34685 ft | 480 kts | 54° |
| 2026-04-29 07:55 | 39.17972 | -23.38306 | 34901 ft | 480 kts | 53° |
| 2026-04-29 07:55 | 39.20027 | -23.34916 | 34985 ft | 478 kts | 53° |
| 2026-04-29 07:56 | 39.24116 | -23.28173 | 34994 ft | 477 kts | 53° |
| 2026-04-29 07:56 | 39.28201 | -23.21416 | 35000 ft | 476 kts | 53° |
| 2026-04-29 07:57 | 39.32245 | -23.14705 | 34999 ft | 476 kts | 54° |
| 2026-04-29 07:57 | 39.36301 | -23.07934 | 34999 ft | 476 kts | 53° |
| 2026-04-29 07:58 | 39.40367 | -23.01153 | 35004 ft | 476 kts | 53° |
| 2026-04-29 07:58 | 39.44397 | -22.94422 | 35017 ft | 476 kts | 53° |
| 2026-04-29 07:59 | 39.48453 | -22.87623 | 35017 ft | 476 kts | 53° |
| 2026-04-29 07:59 | 39.52513 | -22.80830 | 35018 ft | 476 kts | 53° |
| 2026-04-29 08:00 | 39.56559 | -22.74026 | 35010 ft | 476 kts | 53° |
| 2026-04-29 08:00 | 39.60561 | -22.67254 | 35020 ft | 476 kts | 53° |
| 2026-04-29 08:01 | 39.64601 | -22.60437 | 35024 ft | 476 kts | 53° |
| 2026-04-29 08:01 | 39.68643 | -22.53614 | 35027 ft | 476 kts | 53° |
| 2026-04-29 08:02 | 39.72664 | -22.46794 | 35035 ft | 476 kts | 53° |
| 2026-04-29 08:02 | 39.76673 | -22.39959 | 35043 ft | 475 kts | 53° |
| 2026-04-29 08:03 | 39.80653 | -22.33177 | 35045 ft | 474 kts | 53° |
| 2026-04-29 08:03 | 39.84656 | -22.26355 | 35041 ft | 473 kts | 53° |
| 2026-04-29 08:04 | 39.88640 | -22.19538 | 35045 ft | 473 kts | 53° |
| 2026-04-29 08:04 | 39.92624 | -22.12696 | 35041 ft | 473 kts | 53° |
| 2026-04-29 08:05 | 39.96571 | -22.05909 | 35029 ft | 472 kts | 53° |
| 2026-04-29 08:05 | 40.00526 | -21.99062 | 35031 ft | 472 kts | 54° |
| 2026-04-29 08:06 | 40.04272 | -21.92027 | 35027 ft | 472 kts | 57° |
| 2026-04-29 08:06 | 40.07867 | -21.84850 | 35027 ft | 472 kts | 57° |
| 2026-04-29 08:07 | 40.11474 | -21.77684 | 35035 ft | 472 kts | 56° |
| 2026-04-29 08:07 | 40.15116 | -21.70557 | 35044 ft | 471 kts | 56° |
| 2026-04-29 08:08 | 40.18765 | -21.63437 | 35043 ft | 471 kts | 56° |
| 2026-04-29 08:08 | 40.22372 | -21.56363 | 35043 ft | 470 kts | 56° |
| 2026-04-29 08:09 | 40.26003 | -21.49234 | 35042 ft | 470 kts | 56° |
| 2026-04-29 08:09 | 40.29626 | -21.42098 | 35038 ft | 470 kts | 56° |
| 2026-04-29 08:10 | 40.33236 | -21.34964 | 35040 ft | 469 kts | 56° |
| 2026-04-29 08:10 | 40.36834 | -21.27833 | 35040 ft | 469 kts | 56° |
| 2026-04-29 08:11 | 40.40408 | -21.20736 | 35038 ft | 469 kts | 56° |
| 2026-04-29 08:11 | 40.44008 | -21.13575 | 35045 ft | 468 kts | 56° |
| 2026-04-29 08:12 | 40.47594 | -21.06434 | 35042 ft | 468 kts | 56° |
| 2026-04-29 08:12 | 40.51140 | -20.99338 | 35047 ft | 467 kts | 56° |
| 2026-04-29 08:13 | 40.54703 | -20.92190 | 35041 ft | 467 kts | 56° |
| 2026-04-29 08:13 | 40.58267 | -20.85052 | 35043 ft | 467 kts | 56° |
| 2026-04-29 08:14 | 40.61827 | -20.77900 | 35041 ft | 467 kts | 56° |
| 2026-04-29 08:14 | 40.65364 | -20.70744 | 35045 ft | 466 kts | 56° |
| 2026-04-29 08:15 | 40.68890 | -20.63619 | 35045 ft | 466 kts | 56° |
| 2026-04-29 08:15 | 40.72435 | -20.56462 | 35039 ft | 466 kts | 56° |
| 2026-04-29 08:16 | 40.75961 | -20.49291 | 35048 ft | 466 kts | 56° |
| 2026-04-29 08:16 | 40.79484 | -20.42109 | 35044 ft | 465 kts | 55° |
| 2026-04-29 08:17 | 40.82997 | -20.34940 | 35046 ft | 465 kts | 55° |
| 2026-04-29 08:17 | 40.86503 | -20.27767 | 35037 ft | 464 kts | 55° |
| 2026-04-29 08:18 | 40.90005 | -20.20584 | 35038 ft | 464 kts | 55° |
| 2026-04-29 08:18 | 40.93470 | -20.13446 | 35031 ft | 464 kts | 55° |
| 2026-04-29 08:19 | 40.96963 | -20.06264 | 35033 ft | 463 kts | 55° |
| 2026-04-29 08:19 | 41.00448 | -19.99086 | 35021 ft | 463 kts | 54° |
| 2026-04-29 08:20 | 41.04028 | -19.92005 | 35023 ft | 462 kts | 53° |
| 2026-04-29 08:20 | 41.07669 | -19.85061 | 35020 ft | 461 kts | 53° |
| 2026-04-29 08:21 | 41.11319 | -19.78045 | 35022 ft | 462 kts | 53° |
| 2026-04-29 08:21 | 41.14937 | -19.70986 | 35029 ft | 461 kts | 53° |
| 2026-04-29 08:22 | 41.18530 | -19.63942 | 35037 ft | 460 kts | 53° |
| 2026-04-29 08:22 | 41.22116 | -19.56901 | 35022 ft | 460 kts | 53° |
| 2026-04-29 08:23 | 41.25674 | -19.49890 | 35028 ft | 460 kts | 53° |
| 2026-04-29 08:23 | 41.29253 | -19.42834 | 35030 ft | 460 kts | 53° |
| 2026-04-29 08:24 | 41.32831 | -19.35774 | 35025 ft | 459 kts | 53° |
| 2026-04-29 08:24 | 41.36409 | -19.28721 | 35026 ft | 459 kts | 53° |
| 2026-04-29 08:25 | 41.39936 | -19.21712 | 35030 ft | 458 kts | 53° |
| 2026-04-29 08:25 | 41.43476 | -19.14656 | 35026 ft | 457 kts | 53° |
| 2026-04-29 08:26 | 41.47017 | -19.07617 | 35031 ft | 456 kts | 53° |
| 2026-04-29 08:26 | 41.50538 | -19.00591 | 35031 ft | 455 kts | 53° |
| 2026-04-29 08:27 | 41.54025 | -18.93602 | 35024 ft | 454 kts | 53° |
| 2026-04-29 08:27 | 41.57521 | -18.86575 | 35021 ft | 454 kts | 53° |
| 2026-04-29 08:28 | 41.61013 | -18.79546 | 35019 ft | 454 kts | 53° |
| 2026-04-29 08:28 | 41.63919 | -18.73698 | 35019 ft | 453 kts | 53° |
| 2026-04-29 08:29 | 41.67972 | -18.65517 | 35014 ft | 453 kts | 53° |
| 2026-04-29 08:29 | 41.71435 | -18.58489 | 35026 ft | 452 kts | 54° |
| 2026-04-29 08:30 | 41.76027 | -18.49162 | 35027 ft | 449 kts | 54° |
| 2026-04-29 08:31 | 41.79454 | -18.42185 | 35040 ft | 448 kts | 54° |
| 2026-04-29 08:31 | 41.82867 | -18.35220 | 35031 ft | 446 kts | 54° |
| 2026-04-29 08:32 | 41.86274 | -18.28266 | 35018 ft | 444 kts | 54° |
| 2026-04-29 08:32 | 41.89638 | -18.21370 | 35015 ft | 444 kts | 54° |
| 2026-04-29 08:33 | 41.93015 | -18.14427 | 35009 ft | 444 kts | 54° |
| 2026-04-29 08:33 | 41.96390 | -18.07480 | 35025 ft | 443 kts | 54° |
| 2026-04-29 08:34 | 41.99751 | -18.00531 | 35023 ft | 442 kts | 55° |
| 2026-04-29 08:34 | 42.02941 | -17.93513 | 35021 ft | 442 kts | 58° |
| 2026-04-29 08:35 | 42.06002 | -17.86332 | 35010 ft | 442 kts | 58° |
| 2026-04-29 08:35 | 42.09051 | -17.79134 | 35006 ft | 441 kts | 58° |
| 2026-04-29 08:36 | 42.12105 | -17.72031 | 35012 ft | 441 kts | 58° |
| 2026-04-29 08:36 | 42.15194 | -17.64903 | 35010 ft | 440 kts | 58° |
| 2026-04-29 08:37 | 42.18272 | -17.57755 | 35002 ft | 440 kts | 58° |
| 2026-04-29 08:37 | 42.21332 | -17.50613 | 34998 ft | 440 kts | 58° |
| 2026-04-29 08:38 | 42.24387 | -17.43466 | 34993 ft | 439 kts | 58° |
| 2026-04-29 08:38 | 42.27417 | -17.36367 | 35001 ft | 439 kts | 58° |
| 2026-04-29 08:39 | 42.30465 | -17.29207 | 34998 ft | 438 kts | 58° |
| 2026-04-29 08:39 | 42.33497 | -17.22065 | 34998 ft | 437 kts | 58° |
| 2026-04-29 08:40 | 42.36519 | -17.14936 | 34997 ft | 436 kts | 58° |
| 2026-04-29 08:40 | 42.39508 | -17.07845 | 34998 ft | 436 kts | 58° |
| 2026-04-29 08:41 | 42.42509 | -17.00726 | 35000 ft | 435 kts | 58° |
| 2026-04-29 08:41 | 42.45505 | -16.93609 | 34994 ft | 434 kts | 58° |
| 2026-04-29 08:42 | 42.48491 | -16.86496 | 34989 ft | 434 kts | 58° |
| 2026-04-29 08:42 | 42.51471 | -16.79372 | 34986 ft | 434 kts | 58° |
| 2026-04-29 08:43 | 42.54443 | -16.72250 | 34975 ft | 434 kts | 59° |
| 2026-04-29 08:43 | 42.57410 | -16.65118 | 34987 ft | 434 kts | 58° |
| 2026-04-29 08:44 | 42.60361 | -16.58007 | 34983 ft | 434 kts | 58° |
| 2026-04-29 08:44 | 42.63320 | -16.50871 | 34988 ft | 433 kts | 58° |
| 2026-04-29 08:45 | 42.66256 | -16.43776 | 34980 ft | 433 kts | 59° |
| 2026-04-29 08:45 | 42.69196 | -16.36636 | 34979 ft | 433 kts | 59° |
| 2026-04-29 08:46 | 42.72135 | -16.29492 | 34989 ft | 432 kts | 59° |
| 2026-04-29 08:46 | 42.75067 | -16.22357 | 34984 ft | 432 kts | 59° |
| 2026-04-29 08:47 | 42.77995 | -16.15213 | 34973 ft | 432 kts | 59° |
| 2026-04-29 08:47 | 42.80901 | -16.08101 | 34975 ft | 432 kts | 59° |
| 2026-04-29 08:48 | 42.83814 | -16.00934 | 34982 ft | 432 kts | 59° |
| 2026-04-29 08:48 | 42.86738 | -15.93753 | 34994 ft | 433 kts | 59° |
| 2026-04-29 08:49 | 42.89648 | -15.86578 | 34983 ft | 432 kts | 59° |
| 2026-04-29 08:49 | 42.92550 | -15.79392 | 34982 ft | 432 kts | 59° |
| 2026-04-29 08:50 | 42.95435 | -15.72234 | 34981 ft | 432 kts | 60° |
| 2026-04-29 08:50 | 42.98325 | -15.65032 | 34981 ft | 432 kts | 60° |
| 2026-04-29 08:51 | 43.01219 | -15.57830 | 34990 ft | 432 kts | 60° |
| 2026-04-29 08:51 | 43.04105 | -15.50637 | 34984 ft | 432 kts | 59° |
| 2026-04-29 08:52 | 43.06986 | -15.43428 | 34983 ft | 432 kts | 60° |
| 2026-04-29 08:52 | 43.09842 | -15.36245 | 34981 ft | 432 kts | 60° |
| 2026-04-29 08:53 | 43.12706 | -15.29016 | 34984 ft | 432 kts | 60° |
| 2026-04-29 08:53 | 43.15567 | -15.21791 | 34985 ft | 432 kts | 60° |
| 2026-04-29 08:54 | 43.18426 | -15.14553 | 34983 ft | 431 kts | 60° |
| 2026-04-29 08:54 | 43.21282 | -15.07320 | 34980 ft | 432 kts | 60° |
| 2026-04-29 08:55 | 43.24134 | -15.00079 | 34976 ft | 431 kts | 59° |
| 2026-04-29 08:55 | 43.26980 | -14.92837 | 34988 ft | 431 kts | 60° |
| 2026-04-29 08:56 | 43.29800 | -14.85625 | 34981 ft | 431 kts | 60° |
| 2026-04-29 08:56 | 43.32641 | -14.78349 | 34980 ft | 431 kts | 60° |
| 2026-04-29 08:57 | 43.35467 | -14.71089 | 34981 ft | 431 kts | 60° |
| 2026-04-29 08:57 | 43.38293 | -14.63821 | 34979 ft | 431 kts | 60° |
| 2026-04-29 08:58 | 43.41099 | -14.56598 | 34992 ft | 431 kts | 60° |
| 2026-04-29 08:58 | 43.43916 | -14.49303 | 34982 ft | 431 kts | 60° |
| 2026-04-29 08:59 | 43.46721 | -14.42008 | 34979 ft | 431 kts | 60° |
| 2026-04-29 08:59 | 43.49526 | -14.34708 | 34979 ft | 431 kts | 60° |
| 2026-04-29 09:00 | 43.52312 | -14.27439 | 34979 ft | 431 kts | 60° |
| 2026-04-29 09:00 | 43.55115 | -14.20088 | 34990 ft | 431 kts | 60° |
| 2026-04-29 09:01 | 43.57914 | -14.12760 | 34985 ft | 432 kts | 60° |
| 2026-04-29 09:01 | 43.60690 | -14.05470 | 34982 ft | 432 kts | 60° |
| 2026-04-29 09:02 | 43.63472 | -13.98120 | 34984 ft | 432 kts | 60° |
| 2026-04-29 09:02 | 43.66256 | -13.90760 | 34974 ft | 432 kts | 60° |
| 2026-04-29 09:03 | 43.69036 | -13.83398 | 34986 ft | 432 kts | 60° |
| 2026-04-29 09:03 | 43.71818 | -13.76008 | 34972 ft | 433 kts | 60° |
| 2026-04-29 09:04 | 43.74595 | -13.68619 | 34969 ft | 434 kts | 60° |
| 2026-04-29 09:04 | 43.77366 | -13.61203 | 34969 ft | 434 kts | 60° |
| 2026-04-29 09:05 | 43.80116 | -13.53832 | 34968 ft | 434 kts | 60° |
| 2026-04-29 09:05 | 43.82889 | -13.46396 | 34978 ft | 434 kts | 60° |
| 2026-04-29 09:06 | 43.85658 | -13.38952 | 34969 ft | 435 kts | 60° |
| 2026-04-29 09:06 | 43.88428 | -13.31490 | 34962 ft | 436 kts | 60° |
| 2026-04-29 09:07 | 43.91193 | -13.24003 | 34962 ft | 436 kts | 60° |
| 2026-04-29 09:07 | 43.93950 | -13.16516 | 34966 ft | 436 kts | 60° |
| 2026-04-29 09:08 | 43.96689 | -13.09063 | 34970 ft | 437 kts | 60° |
| 2026-04-29 09:08 | 43.99446 | -13.01545 | 34958 ft | 437 kts | 59° |
| 2026-04-29 09:09 | 44.02802 | -12.94566 | 34958 ft | 434 kts | 51° |
| 2026-04-29 09:09 | 44.06333 | -12.87742 | 34961 ft | 435 kts | 51° |
| 2026-04-29 09:10 | 44.09859 | -12.80909 | 34957 ft | 435 kts | 52° |
| 2026-04-29 09:10 | 44.13379 | -12.74050 | 34971 ft | 435 kts | 52° |
| 2026-04-29 09:11 | 44.16895 | -12.67176 | 34958 ft | 436 kts | 52° |
| 2026-04-29 09:11 | 44.20395 | -12.60329 | 34955 ft | 436 kts | 52° |
| 2026-04-29 09:12 | 44.23914 | -12.53436 | 34953 ft | 437 kts | 52° |
| 2026-04-29 09:12 | 44.27436 | -12.46519 | 34948 ft | 437 kts | 52° |
| 2026-04-29 09:13 | 44.30951 | -12.39595 | 34968 ft | 437 kts | 52° |
| 2026-04-29 09:13 | 44.34463 | -12.32650 | 34965 ft | 438 kts | 52° |
| 2026-04-29 09:14 | 44.37983 | -12.25659 | 34959 ft | 439 kts | 52° |
| 2026-04-29 09:14 | 44.41479 | -12.18716 | 34946 ft | 439 kts | 52° |
| 2026-04-29 09:15 | 44.45004 | -12.11717 | 34947 ft | 440 kts | 52° |
| 2026-04-29 09:15 | 44.48523 | -12.04701 | 34951 ft | 440 kts | 52° |
| 2026-04-29 09:16 | 44.52044 | -11.97656 | 34942 ft | 441 kts | 52° |
| 2026-04-29 09:16 | 44.55567 | -11.90601 | 34944 ft | 442 kts | 52° |
| 2026-04-29 09:17 | 44.59068 | -11.83562 | 34952 ft | 442 kts | 52° |
| 2026-04-29 09:17 | 44.62585 | -11.76479 | 34959 ft | 442 kts | 52° |
| 2026-04-29 09:18 | 44.66096 | -11.69382 | 34957 ft | 442 kts | 52° |
| 2026-04-29 09:18 | 44.69580 | -11.62336 | 34956 ft | 442 kts | 52° |
| 2026-04-29 09:19 | 44.73089 | -11.55236 | 34959 ft | 442 kts | 52° |
| 2026-04-29 09:19 | 44.76579 | -11.48121 | 34957 ft | 442 kts | 52° |
| 2026-04-29 09:20 | 44.80068 | -11.40998 | 34959 ft | 442 kts | 52° |
| 2026-04-29 09:20 | 44.83573 | -11.33851 | 34960 ft | 443 kts | 52° |
| 2026-04-29 09:21 | 44.87047 | -11.26732 | 34952 ft | 444 kts | 52° |
| 2026-04-29 09:21 | 44.90543 | -11.19545 | 34949 ft | 444 kts | 52° |
| 2026-04-29 09:22 | 44.94038 | -11.12337 | 34970 ft | 445 kts | 52° |
| 2026-04-29 09:22 | 44.97536 | -11.05110 | 34951 ft | 446 kts | 52° |
| 2026-04-29 09:23 | 45.01041 | -10.97846 | 34937 ft | 448 kts | 53° |
| 2026-04-29 09:23 | 45.04465 | -10.90469 | 34946 ft | 449 kts | 54° |
| 2026-04-29 09:24 | 45.07823 | -10.83067 | 34959 ft | 450 kts | 54° |
| 2026-04-29 09:24 | 45.11222 | -10.75625 | 34959 ft | 450 kts | 54° |
| 2026-04-29 09:25 | 45.14642 | -10.68164 | 34941 ft | 452 kts | 54° |
| 2026-04-29 09:25 | 45.18059 | -10.60678 | 34938 ft | 453 kts | 54° |
| 2026-04-29 09:26 | 45.20902 | -10.54428 | 34942 ft | 454 kts | 54° |
| 2026-04-29 09:26 | 45.24330 | -10.46897 | 34937 ft | 454 kts | 54° |
| 2026-04-29 09:27 | 45.27751 | -10.39346 | 34941 ft | 456 kts | 54° |
| 2026-04-29 09:27 | 45.31183 | -10.31749 | 34961 ft | 458 kts | 54° |
| 2026-04-29 09:28 | 45.34605 | -10.24150 | 34947 ft | 459 kts | 54° |
| 2026-04-29 09:28 | 45.38047 | -10.16501 | 34946 ft | 459 kts | 54° |
| 2026-04-29 09:29 | 45.41464 | -10.08881 | 34944 ft | 459 kts | 55° |
| 2026-04-29 09:29 | 45.46623 | -9.97332 | 34927 ft | 462 kts | 55° |
| 2026-04-29 09:30 | 45.50073 | -9.89588 | 34933 ft | 463 kts | 55° |
| 2026-04-29 09:30 | 45.53518 | -9.81815 | 34934 ft | 463 kts | 55° |
| 2026-04-29 09:31 | 45.56944 | -9.74083 | 34946 ft | 464 kts | 56° |
| 2026-04-29 09:31 | 45.60393 | -9.66284 | 34939 ft | 465 kts | 56° |
| 2026-04-29 09:32 | 45.63841 | -9.58459 | 34935 ft | 466 kts | 56° |
| 2026-04-29 09:32 | 45.67294 | -9.50596 | 34936 ft | 466 kts | 56° |
| 2026-04-29 09:33 | 45.70714 | -9.42782 | 34941 ft | 466 kts | 57° |
| 2026-04-29 09:33 | 45.74161 | -9.34890 | 34931 ft | 467 kts | 57° |
| 2026-04-29 09:34 | 45.77611 | -9.26978 | 34926 ft | 468 kts | 57° |
| 2026-04-29 09:34 | 45.81056 | -9.19041 | 34945 ft | 469 kts | 57° |
| 2026-04-29 09:35 | 45.84501 | -9.11092 | 34940 ft | 469 kts | 57° |
| 2026-04-29 09:35 | 45.87913 | -9.03182 | 34936 ft | 469 kts | 58° |
| 2026-04-29 09:36 | 45.91350 | -8.95197 | 34935 ft | 470 kts | 58° |
| 2026-04-29 09:36 | 45.94781 | -8.87197 | 34930 ft | 470 kts | 58° |
| 2026-04-29 09:37 | 45.98090 | -8.79078 | 34932 ft | 470 kts | 65° |
| 2026-04-29 09:37 | 45.99876 | -8.70067 | 34930 ft | 469 kts | 85° |
| 2026-04-29 09:38 | 46.00041 | -8.60760 | 34931 ft | 467 kts | 91° |
| 2026-04-29 09:38 | 46.00055 | -8.51412 | 34927 ft | 467 kts | 91° |
| 2026-04-29 09:39 | 46.00062 | -8.42050 | 34931 ft | 467 kts | 91° |
| 2026-04-29 09:39 | 46.00061 | -8.32697 | 34933 ft | 467 kts | 91° |
| 2026-04-29 09:40 | 46.00052 | -8.23392 | 34929 ft | 467 kts | 91° |
| 2026-04-29 09:40 | 46.00041 | -8.14033 | 34931 ft | 467 kts | 91° |
| 2026-04-29 09:41 | 46.00020 | -8.04680 | 34934 ft | 467 kts | 91° |
| 2026-04-29 09:41 | 46.00634 | -7.95370 | 34934 ft | 469 kts | 79° |
| 2026-04-29 09:42 | 46.01905 | -7.86226 | 34924 ft | 469 kts | 80° |
| 2026-04-29 09:42 | 46.03174 | -7.76989 | 34923 ft | 470 kts | 80° |
| 2026-04-29 09:43 | 46.04427 | -7.67748 | 34925 ft | 470 kts | 81° |
| 2026-04-29 09:43 | 46.05657 | -7.58568 | 34924 ft | 470 kts | 81° |
| 2026-04-29 09:44 | 46.06903 | -7.49323 | 34906 ft | 470 kts | 81° |
| 2026-04-29 09:44 | 46.08143 | -7.40067 | 34907 ft | 471 kts | 81° |
| 2026-04-29 09:45 | 46.09375 | -7.30777 | 34910 ft | 472 kts | 81° |
| 2026-04-29 09:45 | 46.10600 | -7.21517 | 34921 ft | 473 kts | 81° |
| 2026-04-29 09:46 | 46.11818 | -7.12207 | 34915 ft | 472 kts | 81° |
| 2026-04-29 09:46 | 46.13031 | -7.02890 | 34934 ft | 472 kts | 81° |
| 2026-04-29 09:47 | 46.14235 | -6.93593 | 34936 ft | 471 kts | 82° |
| 2026-04-29 09:47 | 46.15415 | -6.84388 | 34933 ft | 470 kts | 82° |
| 2026-04-29 09:48 | 46.16595 | -6.75112 | 34915 ft | 470 kts | 82° |
| 2026-04-29 09:48 | 46.17766 | -6.65831 | 34939 ft | 469 kts | 82° |
| 2026-04-29 09:49 | 46.18926 | -6.56570 | 34943 ft | 468 kts | 82° |
| 2026-04-29 09:49 | 46.20078 | -6.47324 | 34940 ft | 467 kts | 82° |
| 2026-04-29 09:50 | 46.21218 | -6.38171 | 34908 ft | 466 kts | 83° |
| 2026-04-29 09:50 | 46.22359 | -6.28953 | 34900 ft | 466 kts | 83° |
| 2026-04-29 09:51 | 46.23484 | -6.19712 | 34899 ft | 467 kts | 83° |
| 2026-04-29 09:51 | 46.24610 | -6.10515 | 34907 ft | 467 kts | 83° |
| 2026-04-29 09:52 | 46.25737 | -6.01259 | 34901 ft | 467 kts | 83° |
| 2026-04-29 09:52 | 46.26840 | -5.91989 | 34886 ft | 468 kts | 84° |
| 2026-04-29 09:53 | 46.27931 | -5.82713 | 34887 ft | 468 kts | 84° |
| 2026-04-29 09:53 | 46.29027 | -5.73458 | 34891 ft | 469 kts | 84° |
| 2026-04-29 09:54 | 46.30122 | -5.64125 | 34896 ft | 470 kts | 84° |
| 2026-04-29 09:54 | 46.31202 | -5.54856 | 34875 ft | 470 kts | 85° |
| 2026-04-29 09:55 | 46.32279 | -5.45524 | 34882 ft | 470 kts | 85° |
| 2026-04-29 09:55 | 46.33345 | -5.36189 | 34887 ft | 470 kts | 85° |
| 2026-04-29 09:56 | 46.34408 | -5.26851 | 34896 ft | 470 kts | 85° |
| 2026-04-29 09:56 | 46.35461 | -5.17510 | 34875 ft | 470 kts | 85° |
| 2026-04-29 09:57 | 46.36514 | -5.08158 | 34880 ft | 471 kts | 85° |
| 2026-04-29 09:57 | 46.37549 | -4.98852 | 34886 ft | 471 kts | 85° |
| 2026-04-29 09:58 | 46.38580 | -4.89473 | 34892 ft | 470 kts | 85° |
| 2026-04-29 09:58 | 46.39602 | -4.80102 | 34868 ft | 471 kts | 86° |
| 2026-04-29 09:59 | 46.40618 | -4.70720 | 34876 ft | 471 kts | 86° |
| 2026-04-29 09:59 | 46.41624 | -4.61390 | 34885 ft | 472 kts | 86° |
| 2026-04-29 10:00 | 46.42632 | -4.51987 | 34889 ft | 472 kts | 86° |
| 2026-04-29 10:00 | 46.43633 | -4.42564 | 34895 ft | 472 kts | 86° |
| 2026-04-29 10:01 | 46.44629 | -4.33135 | 34904 ft | 472 kts | 86° |
| 2026-04-29 10:01 | 46.45605 | -4.23769 | 34906 ft | 472 kts | 86° |
| 2026-04-29 10:02 | 46.46577 | -4.14342 | 34906 ft | 472 kts | 86° |
| 2026-04-29 10:02 | 46.47546 | -4.04911 | 34908 ft | 472 kts | 86° |
| 2026-04-29 10:03 | 46.48500 | -3.95469 | 34886 ft | 473 kts | 86° |
| 2026-04-29 10:03 | 46.49444 | -3.86058 | 34894 ft | 474 kts | 86° |
| 2026-04-29 10:04 | 46.50399 | -3.76580 | 34900 ft | 475 kts | 86° |
| 2026-04-29 10:04 | 46.51343 | -3.67076 | 34922 ft | 475 kts | 86° |
| 2026-04-29 10:05 | 46.52283 | -3.57583 | 34898 ft | 475 kts | 86° |
| 2026-04-29 10:05 | 46.53213 | -3.48082 | 34908 ft | 476 kts | 86° |
| 2026-04-29 10:06 | 46.54124 | -3.38619 | 34916 ft | 476 kts | 87° |
| 2026-04-29 10:06 | 46.55031 | -3.29087 | 34921 ft | 476 kts | 87° |
| 2026-04-29 10:07 | 46.55933 | -3.19554 | 34896 ft | 476 kts | 86° |
| 2026-04-29 10:07 | 46.57219 | -3.10076 | 34904 ft | 483 kts | 74° |
| 2026-04-29 10:08 | 46.60187 | -3.01270 | 34909 ft | 488 kts | 62° |
| 2026-04-29 10:08 | 46.63620 | -2.92756 | 34917 ft | 488 kts | 62° |
| 2026-04-29 10:09 | 46.67020 | -2.84245 | 34923 ft | 489 kts | 62° |
| 2026-04-29 10:09 | 46.70437 | -2.75676 | 34909 ft | 489 kts | 62° |
| 2026-04-29 10:10 | 46.73861 | -2.67083 | 34916 ft | 490 kts | 62° |
| 2026-04-29 10:10 | 46.77275 | -2.58473 | 34932 ft | 490 kts | 62° |
| 2026-04-29 10:11 | 46.80678 | -2.49850 | 34932 ft | 490 kts | 62° |
| 2026-04-29 10:11 | 46.84083 | -2.41211 | 34907 ft | 491 kts | 62° |
| 2026-04-29 10:12 | 46.87487 | -2.32633 | 34915 ft | 491 kts | 61° |
| 2026-04-29 10:12 | 46.91075 | -2.24111 | 34916 ft | 492 kts | 59° |
| 2026-04-29 10:13 | 46.94733 | -2.15627 | 34922 ft | 493 kts | 59° |
| 2026-04-29 10:13 | 46.98347 | -2.07110 | 34933 ft | 493 kts | 59° |
| 2026-04-29 10:14 | 47.02670 | -1.99408 | 34918 ft | 493 kts | 41° |
| 2026-04-29 10:14 | 47.08073 | -1.93255 | 34935 ft | 492 kts | 36° |
| 2026-04-29 10:15 | 47.13549 | -1.87200 | 34952 ft | 493 kts | 36° |
| 2026-04-29 10:15 | 47.19021 | -1.81129 | 34961 ft | 493 kts | 36° |
| 2026-04-29 10:16 | 47.23579 | -1.76101 | 34963 ft | 493 kts | 36° |
| 2026-04-29 10:16 | 47.29995 | -1.69026 | 34964 ft | 493 kts | 36° |
| 2026-04-29 10:17 | 47.35249 | -1.62544 | 34956 ft | 493 kts | 47° |
| 2026-04-29 10:17 | 47.39549 | -1.54674 | 34975 ft | 493 kts | 52° |
| 2026-04-29 10:18 | 47.43772 | -1.46709 | 34988 ft | 492 kts | 52° |
| 2026-04-29 10:18 | 47.47965 | -1.38783 | 34991 ft | 492 kts | 52° |
| 2026-04-29 10:19 | 47.52167 | -1.30798 | 34993 ft | 491 kts | 52° |
| 2026-04-29 10:19 | 47.56355 | -1.22816 | 34981 ft | 491 kts | 52° |
| 2026-04-29 10:20 | 47.60543 | -1.14809 | 34986 ft | 490 kts | 52° |
| 2026-04-29 10:20 | 47.64714 | -1.06809 | 34998 ft | 489 kts | 52° |
| 2026-04-29 10:21 | 47.68176 | -1.00171 | 35000 ft | 489 kts | 52° |
| 2026-04-29 10:21 | 47.72325 | -0.92189 | 34998 ft | 488 kts | 52° |
| 2026-04-29 10:22 | 47.77132 | -0.82893 | 34981 ft | 488 kts | 52° |
| 2026-04-29 10:22 | 47.80590 | -0.76178 | 34989 ft | 488 kts | 52° |
| 2026-04-29 10:23 | 47.84711 | -0.68164 | 35025 ft | 487 kts | 52° |
| 2026-04-29 10:23 | 47.88800 | -0.60198 | 35031 ft | 487 kts | 52° |
| 2026-04-29 10:24 | 47.92910 | -0.52161 | 35020 ft | 487 kts | 52° |
| 2026-04-29 10:24 | 47.97012 | -0.44115 | 35020 ft | 486 kts | 53° |
| 2026-04-29 10:25 | 48.01105 | -0.36073 | 35014 ft | 486 kts | 53° |
| 2026-04-29 10:25 | 48.05160 | -0.28064 | 35025 ft | 486 kts | 53° |
| 2026-04-29 10:26 | 48.09247 | -0.20025 | 35019 ft | 485 kts | 52° |
| 2026-04-29 10:26 | 48.13391 | -0.12058 | 35019 ft | 484 kts | 52° |
| 2026-04-29 10:27 | 48.19615 | -0.00121 | 35019 ft | 484 kts | 52° |
| 2026-04-29 10:28 | 48.23700 | 0.07815 | 35041 ft | 483 kts | 52° |
| 2026-04-29 10:28 | 48.27796 | 0.15801 | 35058 ft | 481 kts | 52° |
| 2026-04-29 10:29 | 48.31874 | 0.23767 | 35061 ft | 480 kts | 52° |
| 2026-04-29 10:29 | 48.35936 | 0.31724 | 35059 ft | 479 kts | 52° |
| 2026-04-29 10:30 | 48.39992 | 0.39684 | 35062 ft | 479 kts | 52° |
| 2026-04-29 10:30 | 48.44068 | 0.47612 | 35057 ft | 477 kts | 52° |
| 2026-04-29 10:31 | 48.48125 | 0.55500 | 35087 ft | 475 kts | 52° |
| 2026-04-29 10:31 | 48.52304 | 0.63205 | 35084 ft | 473 kts | 44° |
| 2026-04-29 10:32 | 48.57404 | 0.69414 | 35088 ft | 471 kts | 36° |
| 2026-04-29 10:32 | 48.62598 | 0.75323 | 35083 ft | 470 kts | 36° |
| 2026-04-29 10:33 | 48.67818 | 0.81295 | 35095 ft | 470 kts | 36° |
| 2026-04-29 10:33 | 48.73030 | 0.87261 | 35080 ft | 469 kts | 36° |
| 2026-04-29 10:34 | 48.78231 | 0.93221 | 35097 ft | 467 kts | 36° |
| 2026-04-29 10:34 | 48.83387 | 0.99153 | 35111 ft | 467 kts | 36° |
| 2026-04-29 10:35 | 48.88553 | 1.05117 | 35116 ft | 466 kts | 36° |
| 2026-04-29 10:35 | 48.93711 | 1.11089 | 35116 ft | 465 kts | 36° |
| 2026-04-29 10:36 | 48.98825 | 1.17011 | 35109 ft | 465 kts | 36° |
| 2026-04-29 10:36 | 49.03903 | 1.23112 | 35104 ft | 465 kts | 42° |
| 2026-04-29 10:37 | 49.08603 | 1.29901 | 35119 ft | 465 kts | 42° |
| 2026-04-29 10:37 | 49.13316 | 1.36690 | 35119 ft | 464 kts | 41° |
| 2026-04-29 10:38 | 49.18006 | 1.43470 | 35133 ft | 463 kts | 42° |
| 2026-04-29 10:38 | 49.22646 | 1.50210 | 35141 ft | 463 kts | 42° |
| 2026-04-29 10:39 | 49.27307 | 1.57000 | 35147 ft | 462 kts | 42° |
| 2026-04-29 10:39 | 49.31972 | 1.63796 | 35147 ft | 462 kts | 41° |
| 2026-04-29 10:40 | 49.36628 | 1.70593 | 35152 ft | 461 kts | 41° |
| 2026-04-29 10:40 | 49.41272 | 1.77403 | 35149 ft | 460 kts | 41° |
| 2026-04-29 10:41 | 49.45862 | 1.84150 | 35158 ft | 459 kts | 41° |
| 2026-04-29 10:41 | 49.50476 | 1.90950 | 35177 ft | 458 kts | 41° |
| 2026-04-29 10:42 | 49.55066 | 1.97737 | 35180 ft | 457 kts | 41° |
| 2026-04-29 10:42 | 49.59638 | 2.04531 | 35181 ft | 456 kts | 41° |
| 2026-04-29 10:43 | 49.64203 | 2.11325 | 35175 ft | 456 kts | 41° |
| 2026-04-29 10:43 | 49.68769 | 2.18116 | 35175 ft | 455 kts | 41° |
| 2026-04-29 10:44 | 49.73322 | 2.24922 | 35168 ft | 455 kts | 42° |
| 2026-04-29 10:44 | 49.77857 | 2.31730 | 35178 ft | 454 kts | 41° |
| 2026-04-29 10:45 | 49.82350 | 2.38486 | 35185 ft | 452 kts | 41° |
| 2026-04-29 10:45 | 49.86859 | 2.45280 | 35188 ft | 451 kts | 41° |
| 2026-04-29 10:46 | 49.91347 | 2.52068 | 35185 ft | 450 kts | 41° |
| 2026-04-29 10:46 | 49.95799 | 2.58805 | 35195 ft | 450 kts | 41° |
| 2026-04-29 10:47 | 50.00275 | 2.65592 | 35193 ft | 449 kts | 42° |
| 2026-04-29 10:47 | 50.04740 | 2.72404 | 35192 ft | 449 kts | 41° |
| 2026-04-29 10:48 | 50.09189 | 2.79226 | 35205 ft | 448 kts | 41° |
| 2026-04-29 10:48 | 50.13625 | 2.86044 | 35214 ft | 447 kts | 41° |
| 2026-04-29 10:49 | 50.18046 | 2.92820 | 35210 ft | 442 kts | 45° |
| 2026-04-29 10:49 | 50.22354 | 2.99431 | 35208 ft | 434 kts | 45° |
| 2026-04-29 10:50 | 50.26646 | 3.06067 | 35208 ft | 433 kts | 45° |
| 2026-04-29 10:50 | 50.30930 | 3.12716 | 35217 ft | 433 kts | 45° |
| 2026-04-29 10:51 | 50.35208 | 3.19361 | 35217 ft | 433 kts | 45° |
| 2026-04-29 10:51 | 50.39526 | 3.25934 | 35169 ft | 432 kts | 41° |
| 2026-04-29 10:51 | 50.41963 | 3.28651 | 34765 ft | 430 kts | 32° |
| 2026-04-29 10:52 | 50.44647 | 3.30859 | 33751 ft | 439 kts | 28° |
| 2026-04-29 10:52 | 50.47399 | 3.33000 | 32803 ft | 444 kts | 29° |
| 2026-04-29 10:52 | 50.50177 | 3.35161 | 31815 ft | 448 kts | 29° |
| 2026-04-29 10:52 | 50.52989 | 3.37315 | 30914 ft | 451 kts | 29° |
| 2026-04-29 10:53 | 50.55851 | 3.39368 | 29903 ft | 450 kts | 28° |
| 2026-04-29 10:53 | 50.58670 | 3.41272 | 29393 ft | 430 kts | 27° |
| 2026-04-29 10:53 | 50.61380 | 3.43059 | 28764 ft | 426 kts | 27° |
| 2026-04-29 10:53 | 50.64099 | 3.44857 | 28189 ft | 422 kts | 27° |
| 2026-04-29 10:54 | 50.66788 | 3.46659 | 27592 ft | 418 kts | 27° |
| 2026-04-29 10:54 | 50.69438 | 3.48469 | 27001 ft | 414 kts | 27° |
| 2026-04-29 10:54 | 50.72062 | 3.50284 | 26419 ft | 410 kts | 27° |
| 2026-04-29 10:54 | 50.74668 | 3.52095 | 25848 ft | 407 kts | 27° |
| 2026-04-29 10:55 | 50.77252 | 3.53899 | 25271 ft | 404 kts | 27° |
| 2026-04-29 10:55 | 50.79820 | 3.55696 | 24708 ft | 402 kts | 27° |
| 2026-04-29 10:55 | 50.82362 | 3.57476 | 24161 ft | 399 kts | 27° |
| 2026-04-29 10:55 | 50.84895 | 3.59250 | 23584 ft | 396 kts | 27° |
| 2026-04-29 10:56 | 50.87397 | 3.60999 | 23045 ft | 391 kts | 27° |
| 2026-04-29 10:56 | 50.89894 | 3.62640 | 22555 ft | 387 kts | 22° |
| 2026-04-29 10:56 | 50.92563 | 3.63659 | 22077 ft | 385 kts | 11° |
| 2026-04-29 10:56 | 50.95161 | 3.63948 | 21623 ft | 382 kts | 6° |
| 2026-04-29 10:57 | 50.97762 | 3.64101 | 21180 ft | 376 kts | 6° |
| 2026-04-29 10:57 | 51.00364 | 3.64260 | 20730 ft | 372 kts | 6° |
| 2026-04-29 10:57 | 51.02938 | 3.64421 | 20289 ft | 367 kts | 6° |
| 2026-04-29 10:57 | 51.05474 | 3.64584 | 19850 ft | 363 kts | 6° |
| 2026-04-29 10:58 | 51.07991 | 3.64748 | 19401 ft | 360 kts | 6° |
| 2026-04-29 10:58 | 51.10486 | 3.64911 | 18963 ft | 357 kts | 6° |
| 2026-04-29 10:58 | 51.12961 | 3.65071 | 18497 ft | 355 kts | 6° |
| 2026-04-29 10:58 | 51.15422 | 3.65231 | 18007 ft | 352 kts | 6° |
| 2026-04-29 10:59 | 51.17855 | 3.65387 | 17549 ft | 348 kts | 6° |
| 2026-04-29 10:59 | 51.20265 | 3.65550 | 17095 ft | 344 kts | 8° |
| 2026-04-29 10:59 | 51.22600 | 3.66159 | 16648 ft | 337 kts | 19° |
| 2026-04-29 10:59 | 51.24776 | 3.67450 | 16213 ft | 330 kts | 29° |
| 2026-04-29 11:00 | 51.26702 | 3.69296 | 15791 ft | 324 kts | 38° |
| 2026-04-29 11:00 | 51.28528 | 3.71400 | 15367 ft | 322 kts | 38° |
| 2026-04-29 11:00 | 51.30346 | 3.73483 | 14952 ft | 321 kts | 39° |
| 2026-04-29 11:00 | 51.32154 | 3.75555 | 14520 ft | 319 kts | 38° |
| 2026-04-29 11:01 | 51.35663 | 3.79589 | 13654 ft | 317 kts | 39° |
| 2026-04-29 11:01 | 51.37447 | 3.81646 | 13221 ft | 315 kts | 38° |
| 2026-04-29 11:01 | 51.39222 | 3.83688 | 12797 ft | 312 kts | 38° |
| 2026-04-29 11:02 | 51.40985 | 3.85721 | 12343 ft | 311 kts | 38° |
| 2026-04-29 11:02 | 51.42734 | 3.87743 | 11903 ft | 310 kts | 38° |
| 2026-04-29 11:02 | 51.44480 | 3.89760 | 11446 ft | 309 kts | 39° |
| 2026-04-29 11:02 | 51.46219 | 3.91772 | 11010 ft | 308 kts | 38° |
| 2026-04-29 11:03 | 51.47930 | 3.93754 | 10815 ft | 298 kts | 38° |
| 2026-04-29 11:03 | 51.49576 | 3.95659 | 10699 ft | 286 kts | 38° |
| 2026-04-29 11:03 | 51.51165 | 3.97499 | 10501 ft | 278 kts | 38° |
| 2026-04-29 11:03 | 51.52720 | 3.99298 | 10437 ft | 275 kts | 39° |
| 2026-04-29 11:04 | 51.54406 | 4.00747 | 10268 ft | 277 kts | 26° |
| 2026-04-29 11:04 | 51.56216 | 4.01898 | 9709 ft | 282 kts | 25° |
| 2026-04-29 11:04 | 51.58029 | 4.03040 | 9388 ft | 278 kts | 26° |
| 2026-04-29 11:04 | 51.59820 | 4.04164 | 9019 ft | 275 kts | 25° |
| 2026-04-29 11:05 | 51.61593 | 4.05275 | 8680 ft | 272 kts | 25° |
| 2026-04-29 11:05 | 51.63390 | 4.06405 | 7971 ft | 282 kts | 26° |
| 2026-04-29 11:05 | 51.65201 | 4.07543 | 7653 ft | 277 kts | 26° |
| 2026-04-29 11:05 | 51.66993 | 4.08670 | 7239 ft | 277 kts | 26° |
| 2026-04-29 11:06 | 51.68788 | 4.09802 | 6806 ft | 277 kts | 26° |
| 2026-04-29 11:06 | 51.70581 | 4.10936 | 6344 ft | 277 kts | 26° |
| 2026-04-29 11:06 | 51.72378 | 4.12072 | 5895 ft | 277 kts | 26° |
| 2026-04-29 11:06 | 51.74171 | 4.13206 | 5436 ft | 276 kts | 27° |
| 2026-04-29 11:07 | 51.75958 | 4.14340 | 4984 ft | 276 kts | 27° |
| 2026-04-29 11:07 | 51.77744 | 4.15477 | 4518 ft | 276 kts | 27° |
| 2026-04-29 11:07 | 51.79525 | 4.16612 | 4057 ft | 275 kts | 27° |
| 2026-04-29 11:07 | 51.81278 | 4.17727 | 3612 ft | 273 kts | 27° |
| 2026-04-29 11:08 | 51.83048 | 4.18851 | 3148 ft | 272 kts | 27° |
| 2026-04-29 11:08 | 51.84810 | 4.19971 | 2687 ft | 272 kts | 27° |
| 2026-04-29 11:08 | 51.86407 | 4.21341 | 2205 ft | 247 kts | 46° |
| 2026-04-29 11:08 | 51.87394 | 4.23388 | 2002 ft | 217 kts | 59° |
| 2026-04-29 11:09 | 51.88162 | 4.25294 | 2022 ft | 191 kts | 60° |
| 2026-04-29 11:09 | 51.88870 | 4.27036 | 2008 ft | 180 kts | 60° |
| 2026-04-29 11:09 | 51.89529 | 4.28658 | 2021 ft | 162 kts | 60° |
| 2026-04-29 11:09 | 51.90103 | 4.30068 | 2024 ft | 142 kts | 60° |
| 2026-04-29 11:10 | 51.90454 | 4.30938 | 2016 ft | 137 kts | 61° |
| 2026-04-29 11:10 | 51.90969 | 4.32224 | 1627 ft | 138 kts | 62° |
| 2026-04-29 11:10 | 51.91473 | 4.33488 | 1417 ft | 130 kts | 61° |
| 2026-04-29 11:10 | 51.91958 | 4.34701 | 1259 ft | 128 kts | 62° |
| 2026-04-29 11:11 | 51.92441 | 4.35910 | 1084 ft | 128 kts | 60° |
| 2026-04-29 11:11 | 51.92924 | 4.37116 | 907 ft | 127 kts | 61° |
| 2026-04-29 11:11 | 51.93400 | 4.38304 | 732 ft | 127 kts | 60° |
| 2026-04-29 11:11 | 51.93879 | 4.39498 | 573 ft | 125 kts | 58° |
| 2026-04-29 11:12 | 51.94358 | 4.40695 | 389 ft | 130 kts | 59° |
| 2026-04-29 11:12 | 51.94841 | 4.41909 | 208 ft | 129 kts | 59° |
| 2026-04-29 11:12 | 51.95322 | 4.43106 | 26 ft | 125 kts | 58° |
| 2026-04-29 11:12 | 51.95740 | 4.44157 | 1 ft | 80 kts | 57° |
| 2026-04-29 11:13 | 51.95882 | 4.44516 | -2 ft | 12 kts | 57° |
| 2026-04-29 11:13 | 51.95912 | 4.44619 | -1 ft | 11 kts | 87° |
| 2026-04-29 11:13 | 51.95876 | 4.44709 | 0 ft | 9 kts | 142° |
| 2026-04-29 11:13 | 51.95823 | 4.44757 | 1 ft | 8 kts | 161° |
| 2026-04-29 11:14 | 51.95774 | 4.44721 | 1 ft | 10 kts | 229° |
| 2026-04-29 11:14 | 51.95722 | 4.44594 | 1 ft | 17 kts | 236° |
| 2026-04-29 11:14 | 51.95651 | 4.44417 | 1 ft | 21 kts | 238° |
| 2026-04-29 11:14 | 51.95564 | 4.44198 | 1 ft | 25 kts | 237° |
| 2026-04-29 11:15 | 51.95458 | 4.43942 | 2 ft | 29 kts | 237° |
| 2026-04-29 11:15 | 51.95357 | 4.43684 | 1 ft | 20 kts | 236° |
| 2026-04-29 11:15 | 51.95305 | 4.43554 | 1 ft | 10 kts | 237° |
| 2026-04-29 11:15 | 51.95251 | 4.43514 | 1 ft | 9 kts | 170° |
| 2026-04-29 11:16 | 51.95197 | 4.43560 | 1 ft | 9 kts | 147° |
| 2026-04-29 11:16 | 51.95143 | 4.43618 | 1 ft | 10 kts | 148° |
| 2026-04-29 11:16 | 51.95094 | 4.43577 | 1 ft | 9 kts | 232° |
| 2026-04-29 11:16 | 51.95061 | 4.43502 | 1 ft | 5 kts | 236° |
| 2026-04-29 11:17 | 51.95067 | 4.43459 | 1 ft | 4 kts | 313° |
| 2026-04-29 11:17 | 51.95085 | 4.43436 | 1 ft | 1 kts | 324° |
| 2026-04-29 11:17 | 51.95089 | 4.43431 | 1 ft | 1 kts | 324° |
| 2026-04-29 11:17 | 51.95091 | 4.43428 | 1 ft | 0 kts | 324° |